Time;durP1;ratioP1;P1;durP2;ratioP2;P2;SDS_P1;SDS_P2;PMS_P1;PMS_P2;Temp;Humidity;BMP_temperature;BMP_pressure;BME280_temperature;BME280_humidity;BME280_pressure;Samples;Min_cycle;Max_cycle;Signal;HPM_P1;HPM_P2
2021/05/25 00:01:46;;;;;;;13.30;8.05;;;9.70;99.90;;;;;;6095528;23;20309;-85
2021/05/25 00:04:13;;;;;;;13.93;8.48;;;9.70;99.90;;;;;;6093548;23;20056;-84
2021/05/25 00:06:39;;;;;;;17.50;8.80;;;9.60;99.90;;;;;;6093091;23;20373;-84
2021/05/25 00:09:06;;;;;;;14.57;8.77;;;9.60;99.90;;;;;;6088030;23;20052;-84
2021/05/25 00:11:33;;;;;;;16.33;8.73;;;9.60;99.90;;;;;;6094106;23;20159;-83
2021/05/25 00:14:02;;;;;;;15.88;8.73;;;9.60;99.90;;;;;;6093913;23;20037;-85
2021/05/25 00:16:29;;;;;;;16.42;8.90;;;9.60;99.90;;;;;;6095653;23;20097;-83
2021/05/25 00:18:56;;;;;;;16.67;9.43;;;9.60;99.90;;;;;;6097303;23;20025;-84
2021/05/25 00:21:23;;;;;;;15.68;8.80;;;9.60;99.90;;;;;;6097408;23;20072;-84
2021/05/25 00:23:50;;;;;;;21.23;9.57;;;9.60;99.90;;;;;;6094795;23;20024;-84
2021/05/25 00:26:17;;;;;;;19.10;9.18;;;9.60;99.90;;;;;;6096321;23;20042;-83
2021/05/25 00:28:43;;;;;;;20.35;10.63;;;9.60;99.90;;;;;;6098829;23;22453;-84
2021/05/25 00:31:10;;;;;;;20.73;10.80;;;9.60;99.90;;;;;;6092522;23;20022;-84
2021/05/25 00:33:37;;;;;;;20.15;10.98;;;9.60;99.90;;;;;;6098886;23;20446;-85
2021/05/25 00:36:05;;;;;;;21.45;11.32;;;9.60;99.90;;;;;;6123371;23;20066;-84
2021/05/25 00:38:32;;;;;;;19.85;10.90;;;9.60;99.90;;;;;;6096837;23;20044;-83
2021/05/25 00:40:58;;;;;;;25.10;12.73;;;9.60;99.90;;;;;;6095762;23;20092;-85
2021/05/25 00:43:28;;;;;;;24.35;11.38;;;9.60;99.90;;;;;;6095553;23;20018;-84
2021/05/25 00:45:58;;;;;;;22.65;12.35;;;9.60;99.90;;;;;;6098595;23;20026;-84
2021/05/25 00:48:24;;;;;;;24.58;11.60;;;9.60;99.90;;;;;;6121630;23;20131;-84
2021/05/25 00:50:53;;;;;;;22.30;11.52;;;9.70;99.90;;;;;;6094106;23;20026;-84
2021/05/25 00:53:20;;;;;;;22.42;11.95;;;9.70;99.90;;;;;;6120901;23;20040;-84
2021/05/25 00:55:47;;;;;;;22.83;12.02;;;9.60;99.90;;;;;;6097483;23;20455;-84
2021/05/25 00:58:14;;;;;;;21.38;12.82;;;9.70;99.90;;;;;;6097641;23;20037;-84
2021/05/25 01:00:47;;;;;;;24.27;12.68;;;9.70;99.90;;;;;;6096069;23;20025;-84
2021/05/25 01:03:19;;;;;;;21.55;11.73;;;9.60;99.90;;;;;;6096804;23;20077;-84
2021/05/25 01:05:47;;;;;;;24.02;12.75;;;9.70;99.90;;;;;;6123058;23;20029;-84
2021/05/25 01:08:14;;;;;;;22.27;12.75;;;9.60;99.90;;;;;;6072097;23;20045;-83
2021/05/25 01:10:47;;;;;;;21.10;11.63;;;9.70;99.90;;;;;;6119360;23;20024;-84
2021/05/25 01:13:20;;;;;;;29.40;13.65;;;9.60;99.90;;;;;;6096576;23;20530;-84
2021/05/25 01:15:48;;;;;;;27.23;14.00;;;9.60;99.90;;;;;;6094280;23;20049;-84
2021/05/25 01:18:16;;;;;;;26.38;14.07;;;9.60;99.90;;;;;;6092558;23;20022;-84
2021/05/25 01:20:47;;;;;;;29.73;14.27;;;9.60;99.90;;;;;;6097248;23;20029;-84
2021/05/25 01:23:14;;;;;;;26.35;13.95;;;9.60;99.90;;;;;;6095310;23;20132;-85
2021/05/25 01:25:45;;;;;;;36.88;16.85;;;9.60;99.90;;;;;;6096266;23;20061;-85
2021/05/25 01:28:14;;;;;;;27.15;15.35;;;9.60;99.90;;;;;;6094568;23;20025;-84
2021/05/25 01:30:44;;;;;;;32.75;15.48;;;9.60;99.90;;;;;;6096205;23;20033;-83
2021/05/25 01:33:12;;;;;;;31.30;16.40;;;9.60;99.90;;;;;;6095944;23;20346;-84
2021/05/25 01:35:40;;;;;;;34.35;16.63;;;9.60;99.90;;;;;;6095052;23;20030;-84
2021/05/25 01:38:08;;;;;;;35.58;17.95;;;9.60;99.90;;;;;;6097209;23;20044;-83
2021/05/25 01:40:36;;;;;;;32.15;16.83;;;9.60;99.90;;;;;;6096879;23;20022;-84
2021/05/25 01:43:04;;;;;;;28.80;16.10;;;9.60;99.90;;;;;;6091568;23;20059;-84
2021/05/25 01:45:32;;;;;;;25.02;14.68;;;9.50;99.90;;;;;;6090887;23;20022;-84
2021/05/25 01:48:01;;;;;;;27.92;14.43;;;9.50;99.90;;;;;;6090644;23;20023;-84
2021/05/25 01:50:29;;;;;;;25.90;13.98;;;9.50;99.90;;;;;;6089703;23;20037;-84
2021/05/25 01:53:03;;;;;;;27.40;13.38;;;9.50;99.90;;;;;;6083207;23;20018;-86
2021/05/25 01:55:39;;;;;;;21.67;11.85;;;9.40;99.90;;;;;;6082284;23;20028;-85
2021/05/25 01:58:21;;;;;;;14.80;9.38;;;9.30;99.90;;;;;;6090977;23;20045;-84
2021/05/25 02:00:50;;;;;;;15.43;8.30;;;9.30;99.90;;;;;;6091342;23;20034;-84
2021/05/25 02:03:17;;;;;;;14.60;8.20;;;9.30;99.90;;;;;;6089506;23;20097;-85
2021/05/25 02:05:47;;;;;;;12.93;7.97;;;9.20;99.90;;;;;;6075861;23;20026;-83
2021/05/25 02:08:16;;;;;;;14.57;7.63;;;9.20;99.90;;;;;;6087569;23;20031;-85
2021/05/25 02:10:46;;;;;;;15.13;7.15;;;9.20;99.90;;;;;;6089132;23;20571;-85
2021/05/25 02:13:24;;;;;;;7.93;5.93;;;9.20;99.90;;;;;;6087342;23;20015;-84
2021/05/25 02:15:54;;;;;;;8.93;5.55;;;9.10;99.90;;;;;;6087598;23;20093;-84
2021/05/25 02:18:23;;;;;;;7.50;5.15;;;9.10;99.90;;;;;;6089896;23;20422;-85
2021/05/25 02:20:54;;;;;;;10.52;4.88;;;9.10;99.90;;;;;;6087608;23;20049;-84
2021/05/25 02:23:21;;;;;;;11.82;5.80;;;9.00;99.90;;;;;;6089019;23;20081;-84
2021/05/25 02:25:48;;;;;;;7.65;4.57;;;9.00;99.90;;;;;;6088233;23;20085;-85
2021/05/25 02:28:16;;;;;;;5.25;3.83;;;8.90;99.90;;;;;;6087412;23;20023;-84
2021/05/25 02:30:44;;;;;;;9.00;3.88;;;8.90;99.90;;;;;;6090681;23;20025;-84
2021/05/25 02:33:16;;;;;;;7.47;4.45;;;8.90;99.90;;;;;;6090311;23;20032;-84
2021/05/25 02:35:44;;;;;;;5.80;4.40;;;8.80;99.90;;;;;;6089628;23;20046;-84
2021/05/25 02:38:13;;;;;;;7.38;4.75;;;8.80;99.90;;;;;;6088873;23;20097;-84
2021/05/25 02:40:46;;;;;;;11.40;4.80;;;8.80;99.90;;;;;;6089369;23;20030;-83
2021/05/25 02:43:14;;;;;;;6.60;4.18;;;8.80;99.90;;;;;;6088768;23;20033;-83
2021/05/25 02:45:41;;;;;;;9.02;4.18;;;8.80;99.90;;;;;;6089055;23;20073;-84
2021/05/25 02:48:09;;;;;;;11.50;4.60;;;8.80;99.90;;;;;;6091280;23;20056;-84
2021/05/25 02:50:40;;;;;;;7.55;4.13;;;8.80;99.90;;;;;;6040672;23;20098;-85
2021/05/25 02:53:11;;;;;;;5.22;3.55;;;8.80;99.90;;;;;;6074732;23;20022;-83
2021/05/25 02:55:39;;;;;;;4.68;3.25;;;8.80;99.90;;;;;;6088728;23;20086;-83
2021/05/25 02:58:08;;;;;;;5.60;3.60;;;8.70;99.90;;;;;;6091829;23;20073;-83
2021/05/25 03:00:43;;;;;;;6.32;3.58;;;8.70;99.90;;;;;;6091246;23;20065;-84
2021/05/25 03:03:11;;;;;;;8.10;3.72;;;8.70;99.90;;;;;;6088381;23;20026;-83
2021/05/25 03:05:39;;;;;;;10.55;3.83;;;8.60;99.90;;;;;;6077088;23;20022;-84
2021/05/25 03:08:07;;;;;;;8.20;4.22;;;8.60;99.90;;;;;;6091902;23;20451;-83
2021/05/25 03:10:36;;;;;;;7.38;3.90;;;8.60;99.90;;;;;;6091472;23;20087;-83
2021/05/25 03:13:04;;;;;;;8.88;4.30;;;8.60;99.90;;;;;;6090756;23;20026;-84
2021/05/25 03:15:34;;;;;;;9.50;4.75;;;8.60;99.90;;;;;;6090286;23;20046;-85
2021/05/25 03:18:02;;;;;;;7.72;4.78;;;8.60;99.90;;;;;;6089959;23;20033;-83
2021/05/25 03:20:29;;;;;;;9.07;5.30;;;8.60;99.90;;;;;;6089125;23;20101;-84
2021/05/25 03:22:56;;;;;;;9.60;5.32;;;8.60;99.90;;;;;;6090755;23;20046;-84
2021/05/25 03:25:24;;;;;;;9.70;5.63;;;8.60;99.90;;;;;;6091324;23;20027;-84
2021/05/25 03:27:51;;;;;;;16.98;5.80;;;8.60;99.90;;;;;;6091197;23;20509;-84
2021/05/25 03:30:22;;;;;;;14.68;5.50;;;8.60;99.90;;;;;;6090598;23;20042;-84
2021/05/25 03:32:49;;;;;;;11.73;6.28;;;8.60;99.90;;;;;;6090179;23;20029;-85
2021/05/25 03:35:18;;;;;;;10.82;6.13;;;8.60;99.90;;;;;;6090336;23;20026;-84
2021/05/25 03:37:45;;;;;;;11.65;6.13;;;8.60;99.90;;;;;;6088593;23;20033;-85
2021/05/25 03:40:13;;;;;;;13.55;6.47;;;8.60;99.90;;;;;;6089636;23;20101;-85
2021/05/25 03:42:47;;;;;;;16.15;7.57;;;8.60;99.90;;;;;;6089096;23;20370;-84
2021/05/25 03:45:15;;;;;;;13.65;6.82;;;8.60;99.90;;;;;;6088799;23;20086;-84
2021/05/25 03:47:42;;;;;;;13.15;6.85;;;8.60;99.90;;;;;;6088834;23;20050;-84
2021/05/25 03:50:11;;;;;;;12.93;8.20;;;8.60;99.90;;;;;;6063184;23;20093;-85
2021/05/25 03:52:41;;;;;;;12.00;7.85;;;8.60;99.90;;;;;;6086515;23;20022;-84
2021/05/25 04:00:47;;;;;;;16.33;8.73;;;8.60;99.90;;;;;;6090644;23;20022;-85
2021/05/25 04:03:14;;;;;;;21.67;9.43;;;8.60;99.90;;;;;;6087649;23;20018;-85
2021/05/25 04:05:41;;;;;;;20.08;9.98;;;8.60;99.90;;;;;;6086779;23;20347;-85
2021/05/25 04:08:09;;;;;;;16.77;10.07;;;8.50;99.90;;;;;;6087538;23;20045;-85
2021/05/25 04:10:37;;;;;;;21.65;11.38;;;8.50;99.90;;;;;;6088590;23;20026;-83
2021/05/25 04:13:04;;;;;;;17.58;10.55;;;8.50;99.90;;;;;;6087969;23;20026;-83
2021/05/25 04:15:31;;;;;;;18.00;10.90;;;8.50;99.90;;;;;;6089720;23;20030;-83
2021/05/25 04:17:57;;;;;;;17.13;11.05;;;8.50;99.90;;;;;;6087902;23;20046;-83
2021/05/25 04:20:24;;;;;;;22.83;11.30;;;8.50;99.90;;;;;;6089220;23;20025;-83
2021/05/25 04:22:55;;;;;;;16.63;9.90;;;8.50;99.90;;;;;;6089684;23;20148;-83
2021/05/25 04:25:22;;;;;;;20.02;10.65;;;8.50;99.90;;;;;;6089821;23;20538;-84
2021/05/25 04:27:49;;;;;;;16.90;10.30;;;8.50;99.90;;;;;;6088333;23;20311;-84
2021/05/25 04:30:16;;;;;;;21.10;10.93;;;8.50;99.90;;;;;;6066193;23;20018;-84
2021/05/25 04:32:44;;;;;;;15.57;9.63;;;8.50;99.90;;;;;;6089693;23;20026;-84
2021/05/25 04:35:11;;;;;;;17.20;10.80;;;8.50;99.90;;;;;;6092117;23;22568;-84
2021/05/25 04:37:38;;;;;;;19.08;11.23;;;8.50;99.90;;;;;;6092182;23;20057;-84
2021/05/25 04:40:06;;;;;;;21.48;11.27;;;8.50;99.90;;;;;;6090836;23;20026;-84
2021/05/25 04:42:39;;;;;;;20.75;11.73;;;8.50;99.90;;;;;;6113185;23;20025;-84
2021/05/25 04:45:07;;;;;;;19.35;11.60;;;8.50;99.90;;;;;;6092597;23;20486;-83
2021/05/25 04:47:34;;;;;;;21.27;12.52;;;8.60;99.90;;;;;;6095629;23;20022;-84
2021/05/25 04:50:01;;;;;;;17.63;11.23;;;8.60;99.90;;;;;;6094343;23;20018;-84
2021/05/25 04:52:28;;;;;;;19.02;10.82;;;8.50;99.90;;;;;;6094052;23;20033;-84
2021/05/25 04:54:55;;;;;;;17.45;10.85;;;8.50;99.90;;;;;;6091986;23;20046;-83
2021/05/25 04:57:23;;;;;;;17.58;11.18;;;8.50;99.90;;;;;;6094755;23;20458;-85
2021/05/25 04:59:50;;;;;;;19.05;11.07;;;8.60;99.90;;;;;;6097374;23;20028;-85
2021/05/25 05:02:17;;;;;;;22.65;11.13;;;8.60;99.90;;;;;;6095229;23;20033;-85
2021/05/25 05:04:44;;;;;;;15.68;10.45;;;8.60;99.90;;;;;;6094409;23;20093;-84
2021/05/25 05:07:11;;;;;;;16.17;10.73;;;8.60;99.90;;;;;;6092692;23;20018;-83
2021/05/25 05:09:38;;;;;;;18.63;10.15;;;8.70;99.90;;;;;;6093097;23;20028;-84
2021/05/25 05:12:05;;;;;;;20.52;10.45;;;8.70;99.90;;;;;;6067876;23;20537;-84
2021/05/25 05:14:37;;;;;;;20.25;9.82;;;8.70;99.90;;;;;;6095406;23;20026;-85
2021/05/25 05:17:04;;;;;;;17.58;10.90;;;8.70;99.90;;;;;;6120513;23;20041;-85
2021/05/25 05:19:31;;;;;;;15.52;9.77;;;8.70;99.90;;;;;;6094625;23;20022;-85
2021/05/25 05:21:58;;;;;;;15.00;9.90;;;8.80;99.90;;;;;;6121575;23;21081;-84
2021/05/25 05:24:25;;;;;;;20.38;10.27;;;8.70;99.90;;;;;;6094396;23;20519;-85
2021/05/25 05:26:52;;;;;;;14.57;8.85;;;8.80;99.90;;;;;;6094624;23;21375;-84
2021/05/25 05:29:19;;;;;;;15.10;8.85;;;8.80;99.90;;;;;;6095641;23;20018;-83
2021/05/25 05:31:45;;;;;;;17.30;9.95;;;8.80;99.90;;;;;;6095610;23;20093;-83
2021/05/25 05:34:13;;;;;;;18.40;9.77;;;8.90;99.90;;;;;;6095538;23;20066;-83
2021/05/25 05:36:40;;;;;;;13.25;8.20;;;8.90;99.90;;;;;;6092549;23;20056;-83
2021/05/25 05:39:07;;;;;;;15.80;9.10;;;9.00;99.90;;;;;;6094241;23;20030;-84
2021/05/25 05:41:34;;;;;;;13.35;8.75;;;9.00;99.90;;;;;;6121199;23;20026;-84
2021/05/25 05:44:01;;;;;;;13.40;8.40;;;9.10;99.90;;;;;;6095404;23;20033;-84
2021/05/25 05:46:30;;;;;;;15.80;9.02;;;9.20;99.90;;;;;;6094429;23;20030;-84
2021/05/25 05:48:57;;;;;;;17.25;9.80;;;9.30;99.90;;;;;;6094062;23;20026;-83
2021/05/25 05:51:23;;;;;;;14.35;8.80;;;9.40;99.90;;;;;;6121159;23;20021;-85
2021/05/25 05:53:56;;;;;;;14.27;9.90;;;9.50;99.90;;;;;;6097058;23;20066;-84
2021/05/25 05:56:23;;;;;;;13.63;9.07;;;9.50;99.90;;;;;;6096491;23;20034;-83
2021/05/25 05:58:51;;;;;;;16.45;9.50;;;9.50;99.90;;;;;;6093116;23;20077;-83
2021/05/25 06:01:18;;;;;;;15.27;10.00;;;9.60;99.90;;;;;;6094442;23;20005;-84
2021/05/25 06:03:46;;;;;;;20.20;9.60;;;9.60;99.90;;;;;;6093675;23;20498;-82
2021/05/25 06:06:13;;;;;;;15.20;9.82;;;9.70;99.90;;;;;;6121637;23;20477;-84
2021/05/25 06:08:41;;;;;;;17.88;9.25;;;9.70;99.90;;;;;;6095701;23;20026;-84
2021/05/25 06:11:09;;;;;;;16.02;8.90;;;9.70;99.90;;;;;;6096613;23;20025;-85
2021/05/25 06:13:36;;;;;;;15.13;9.88;;;9.70;99.90;;;;;;6073241;23;20073;-84
2021/05/25 06:16:03;;;;;;;14.07;9.55;;;9.80;99.90;;;;;;6094411;23;20022;-85
2021/05/25 06:18:31;;;;;;;13.18;9.00;;;9.80;99.90;;;;;;6094692;23;20522;-84
2021/05/25 06:20:59;;;;;;;13.70;9.63;;;9.80;99.90;;;;;;6094678;23;20049;-84
2021/05/25 06:23:26;;;;;;;21.10;10.52;;;9.90;99.90;;;;;;6095286;23;20034;-84
2021/05/25 06:25:53;;;;;;;14.35;9.05;;;9.90;99.90;;;;;;6097446;23;20028;-84
2021/05/25 06:28:20;;;;;;;11.93;9.15;;;10.00;99.90;;;;;;6094765;23;20499;-84
2021/05/25 06:30:47;;;;;;;12.73;10.45;;;10.00;99.90;;;;;;6096484;23;20005;-84
2021/05/25 06:33:16;;;;;;;22.83;11.98;;;10.10;99.90;;;;;;6098105;23;20041;-83
2021/05/25 06:35:43;;;;;;;20.80;12.23;;;10.30;99.90;;;;;;6096131;23;20022;-83
2021/05/25 06:38:09;;;;;;;18.15;10.75;;;10.40;99.90;;;;;;6045142;23;20381;-83
2021/05/25 06:40:36;;;;;;;17.40;12.07;;;10.50;99.90;;;;;;6096949;23;20439;-85
2021/05/25 06:43:03;;;;;;;13.85;11.20;;;10.60;99.90;;;;;;6096287;23;20045;-84
2021/05/25 06:45:30;;;;;;;14.20;10.15;;;10.60;99.90;;;;;;6097712;23;20030;-84
2021/05/25 06:47:57;;;;;;;17.75;11.45;;;10.70;99.90;;;;;;6098237;23;20041;-84
2021/05/25 06:50:23;;;;;;;17.08;10.95;;;10.90;99.90;;;;;;6097186;23;20014;-84
2021/05/25 06:52:50;;;;;;;13.50;9.88;;;11.00;99.90;;;;;;6122285;23;20057;-84
2021/05/25 06:55:17;;;;;;;14.15;11.20;;;11.00;99.90;;;;;;6096841;23;20013;-85
2021/05/25 06:57:44;;;;;;;13.93;10.48;;;11.10;99.90;;;;;;6098346;23;24307;-85
2021/05/25 07:00:13;;;;;;;16.63;11.15;;;11.10;99.90;;;;;;6096551;23;20018;-84
2021/05/25 07:02:39;;;;;;;17.95;12.50;;;11.00;99.90;;;;;;6097416;23;20395;-84
2021/05/25 07:05:08;;;;;;;12.45;10.70;;;11.10;99.90;;;;;;6098405;23;20029;-84
2021/05/25 07:07:36;;;;;;;13.93;11.13;;;11.20;99.90;;;;;;6097029;23;20108;-84
2021/05/25 07:10:04;;;;;;;14.13;11.27;;;11.30;99.90;;;;;;6098869;23;20629;-85
2021/05/25 07:12:31;;;;;;;16.63;11.07;;;11.50;99.90;;;;;;6098047;23;20096;-84
2021/05/25 07:14:59;;;;;;;15.02;10.07;;;11.50;99.90;;;;;;6097744;23;20030;-84
2021/05/25 07:17:26;;;;;;;12.13;9.88;;;11.70;99.90;;;;;;6099054;23;20522;-83
2021/05/25 07:19:53;;;;;;;13.05;10.05;;;12.00;99.90;;;;;;6123551;23;20469;-83
2021/05/25 07:22:21;;;;;;;14.65;9.40;;;12.10;99.90;;;;;;6085344;23;20045;-83
2021/05/25 07:24:48;;;;;;;16.77;11.45;;;12.30;99.90;;;;;;6097460;23;20026;-84
2021/05/25 07:27:15;;;;;;;13.43;9.57;;;12.50;99.90;;;;;;6098607;23;20022;-85
2021/05/25 07:29:41;;;;;;;13.48;9.65;;;12.70;99.90;;;;;;6083984;23;20014;-84
2021/05/25 07:32:08;;;;;;;13.18;9.23;;;12.70;99.90;;;;;;6101953;23;20022;-83
2021/05/25 07:34:35;;;;;;;16.95;9.75;;;12.70;99.90;;;;;;6102693;23;20101;-84
2021/05/25 07:37:02;;;;;;;11.38;9.55;;;12.70;99.90;;;;;;6087366;23;20089;-85
2021/05/25 07:39:29;;;;;;;14.18;10.15;;;12.70;99.90;;;;;;6097147;23;20021;-84
2021/05/25 07:41:57;;;;;;;11.35;8.77;;;12.60;99.90;;;;;;6084352;23;20032;-84
2021/05/25 07:44:24;;;;;;;11.00;8.85;;;12.50;99.90;;;;;;6123090;23;20045;-84
2021/05/25 07:46:52;;;;;;;10.40;9.02;;;12.40;99.90;;;;;;6097403;23;20101;-84
2021/05/25 07:49:19;;;;;;;17.02;10.30;;;12.30;99.90;;;;;;6123713;23;20021;-84
2021/05/25 07:51:50;;;;;;;15.45;9.10;;;12.30;99.90;;;;;;6098714;23;20032;-85
2021/05/25 07:54:17;;;;;;;10.07;8.32;;;12.40;99.90;;;;;;6097477;23;20034;-84
2021/05/25 07:56:44;;;;;;;13.35;9.23;;;12.30;99.90;;;;;;6095902;23;20029;-83
2021/05/25 07:59:11;;;;;;;11.55;9.02;;;12.40;99.90;;;;;;6098075;23;20006;-85
2021/05/25 08:01:38;;;;;;;11.27;8.60;;;12.50;99.90;;;;;;6096659;23;20057;-84
2021/05/25 08:04:05;;;;;;;10.93;7.93;;;12.70;99.90;;;;;;6096222;23;20410;-84
2021/05/25 08:06:35;;;;;;;12.23;7.95;;;12.90;99.90;;;;;;6097510;23;20034;-84
2021/05/25 08:09:03;;;;;;;12.38;8.35;;;13.20;99.90;;;;;;6096396;23;20057;-83
2021/05/25 08:11:30;;;;;;;11.27;7.32;;;13.50;99.90;;;;;;6097106;23;20022;-85
2021/05/25 08:13:58;;;;;;;17.40;7.75;;;13.60;99.90;;;;;;6096937;23;20022;-84
2021/05/25 08:16:29;;;;;;;10.80;6.97;;;13.60;99.90;;;;;;6093858;23;20025;-84
2021/05/25 08:19:31;;;;;;;15.00;8.20;;;13.50;99.90;;;;;;6095872;23;20029;-83
2021/05/25 08:21:49;;;;;;;14.48;6.68;;;13.30;99.90;;;;;;6117269;23;20078;-83
2021/05/25 08:24:16;;;;;;;13.30;6.07;;;13.20;99.90;;;;;;6083635;23;20085;-83
2021/05/25 08:26:43;;;;;;;8.77;5.00;;;13.10;99.90;;;;;;6095921;23;20018;-84
2021/05/25 08:29:13;;;;;;;12.68;5.80;;;13.00;99.90;;;;;;6120539;23;20037;-84
2021/05/25 08:31:40;;;;;;;13.93;6.85;;;13.10;99.90;;;;;;6096739;23;20047;-84
2021/05/25 08:34:08;;;;;;;14.38;6.43;;;13.10;99.90;;;;;;6096759;23;20037;-83
2021/05/25 08:36:35;;;;;;;11.27;5.45;;;13.20;99.90;;;;;;6096976;23;20485;-83
2021/05/25 08:39:04;;;;;;;12.48;4.72;;;13.30;99.90;;;;;;6096290;23;20069;-83
2021/05/25 08:41:33;;;;;;;10.18;4.75;;;13.40;99.90;;;;;;6122610;23;20491;-83
2021/05/25 08:43:59;;;;;;;12.57;5.35;;;13.60;99.90;;;;;;6097488;23;20073;-83
2021/05/25 08:46:26;;;;;;;15.52;4.72;;;13.70;99.90;;;;;;6118779;23;20041;-83
2021/05/25 08:48:53;;;;;;;11.23;4.10;;;13.80;99.90;;;;;;6098383;23;20101;-83
2021/05/25 08:51:20;;;;;;;9.00;3.90;;;14.00;99.90;;;;;;6097558;23;20466;-83
2021/05/25 08:53:48;;;;;;;10.02;3.58;;;14.30;99.90;;;;;;6097016;23;20029;-83
2021/05/25 08:56:15;;;;;;;9.80;3.15;;;14.50;99.90;;;;;;6098008;23;20073;-83
2021/05/25 08:58:42;;;;;;;7.90;2.47;;;14.80;99.90;;;;;;6097795;23;20017;-83
2021/05/25 09:01:09;;;;;;;9.20;2.45;;;14.90;99.90;;;;;;6097207;23;20022;-83
2021/05/25 09:03:56;;;;;;;7.45;2.75;;;14.80;99.90;;;;;;6095129;23;20073;-83
2021/05/25 09:06:42;;;;;;;10.25;2.88;;;14.60;99.90;;;;;;6097028;23;20062;-83
2021/05/25 09:09:17;;;;;;;9.43;2.08;;;14.70;99.90;;;;;;6079618;23;20088;-82
2021/05/25 09:11:58;;;;;;;6.25;1.83;;;14.80;99.90;;;;;;6094025;23;20333;-83
2021/05/25 09:14:26;;;;;;;9.75;2.13;;;15.30;99.90;;;;;;6084002;23;20093;-83
2021/05/25 09:17:21;;;;;;;6.22;1.65;;;15.60;99.90;;;;;;6096503;23;20403;-83
2021/05/25 09:19:53;;;;;;;11.30;1.33;;;15.80;99.90;;;;;;6098792;23;20013;-83
2021/05/25 09:22:35;;;;;;;7.88;1.40;;;15.90;99.90;;;;;;6099058;23;20033;-82
2021/05/25 09:25:21;;;;;;;6.00;1.42;;;16.00;99.90;;;;;;6094615;23;20077;-82
2021/05/25 09:28:00;;;;;;;6.20;1.33;;;16.10;99.90;;;;;;6093000;23;20037;-82
2021/05/25 09:30:29;;;;;;;11.60;1.35;;;16.30;99.90;;;;;;6092336;23;20523;-82
2021/05/25 09:32:59;;;;;;;5.70;1.00;;;16.30;99.90;;;;;;6117587;23;20084;-82
2021/05/25 09:35:40;;;;;;;7.13;1.35;;;16.20;99.90;;;;;;6093556;23;20030;-81
2021/05/25 09:38:12;;;;;;;6.72;1.00;;;16.10;99.90;;;;;;6093956;23;20281;-83
2021/05/25 09:40:44;;;;;;;5.00;1.00;;;15.80;99.90;;;;;;6093718;23;20060;-82
2021/05/25 09:43:23;;;;;;;7.28;0.90;;;15.30;99.90;;;;;;6090497;23;20029;-82
2021/05/25 09:46:12;;;;;;;6.72;1.65;;;14.80;99.90;;;;;;6069350;23;20042;-83
2021/05/25 09:48:45;;;;;;;3.13;1.13;;;14.30;99.90;;;;;;6076696;23;20025;-85
2021/05/25 09:51:22;;;;;;;5.28;1.00;;;14.00;99.90;;;;;;6052996;23;20072;-82
2021/05/25 09:53:58;;;;;;;2.22;1.00;;;13.90;99.90;;;;;;6096921;23;20021;-82
2021/05/25 09:56:30;;;;;;;11.32;1.77;;;13.90;99.90;;;;;;6095364;23;20045;-83
2021/05/25 09:58:59;;;;;;;15.98;2.10;;;13.90;99.90;;;;;;6122236;23;20445;-83
2021/05/25 10:01:37;;;;;;;7.88;2.28;;;13.70;99.90;;;;;;6096698;23;20052;-83
2021/05/25 10:04:15;;;;;;;10.13;2.35;;;13.20;99.90;;;;;;6094505;23;20076;-84
2021/05/25 10:06:44;;;;;;;10.00;2.22;;;12.80;99.90;;;;;;6099881;23;20037;-82
2021/05/25 10:09:12;;;;;;;14.90;2.13;;;12.60;99.90;;;;;;6111070;23;20014;-83
2021/05/25 10:11:42;;;;;;;7.82;2.25;;;12.60;99.90;;;;;;6112913;23;20054;-83
2021/05/25 10:14:10;;;;;;;8.77;2.42;;;12.60;99.90;;;;;;6113033;23;20030;-84
2021/05/25 10:16:40;;;;;;;10.48;2.20;;;12.70;99.90;;;;;;6111311;23;20041;-83
2021/05/25 10:19:25;;;;;;;12.20;2.53;;;12.90;99.90;;;;;;6112589;23;20028;-82
2021/05/25 10:21:53;;;;;;;5.82;1.58;;;13.30;99.90;;;;;;6081660;23;20021;-82
2021/05/25 10:24:20;;;;;;;12.05;1.73;;;13.80;99.90;;;;;;6109600;23;20026;-82
2021/05/25 10:26:49;;;;;;;6.63;1.30;;;14.00;99.90;;;;;;6100317;23;20097;-83
2021/05/25 10:29:16;;;;;;;5.15;1.45;;;14.20;99.90;;;;;;6096903;23;20022;-82
2021/05/25 10:31:48;;;;;;;5.03;1.30;;;14.30;99.90;;;;;;6096542;23;20034;-82
2021/05/25 10:34:16;;;;;;;4.75;1.20;;;14.40;99.90;;;;;;6096876;23;20026;-82
2021/05/25 10:36:52;;;;;;;6.85;1.98;;;14.50;99.90;;;;;;6095574;23;20101;-82
2021/05/25 10:39:28;;;;;;;9.98;2.15;;;14.70;99.90;;;;;;6121162;23;20098;-82
2021/05/25 10:42:27;;;;;;;5.63;1.10;;;15.10;99.90;;;;;;6093868;23;20525;-82
2021/05/25 10:45:16;;;;;;;2.80;1.30;;;15.60;99.90;;;;;;6092806;23;20018;-82
2021/05/25 10:48:06;;;;;;;5.65;1.50;;;15.90;99.90;;;;;;6092157;23;20029;-82
2021/05/25 10:50:37;;;;;;;3.88;1.10;;;16.20;99.90;;;;;;6094016;23;20077;-82
2021/05/25 10:53:16;;;;;;;7.80;1.45;;;16.40;99.90;;;;;;6093435;23;20028;-83
2021/05/25 10:55:50;;;;;;;4.50;1.23;;;16.50;99.90;;;;;;6012178;23;20038;-83
2021/05/25 10:58:35;;;;;;;3.70;1.85;;;16.40;99.90;;;;;;6041595;23;20026;-83
2021/05/25 11:01:08;;;;;;;5.18;1.00;;;16.20;99.90;;;;;;5984681;23;20519;-84
2021/05/25 11:04:35;;;;;;;2.97;1.30;;;16.20;99.90;;;;;;6014792;23;20050;-83
2021/05/25 11:07:37;;;;;;;7.45;1.45;;;16.60;99.90;;;;;;6029965;23;20081;-83
2021/05/25 11:10:46;;;;;;;11.65;1.15;;;16.40;99.90;;;;;;6026935;23;20440;-83
2021/05/25 11:13:22;;;;;;;7.88;1.23;;;15.90;99.90;;;;;;5997487;23;20022;-82
2021/05/25 11:16:34;;;;;;;3.65;0.93;;;15.70;99.90;;;;;;5990167;23;20014;-82
2021/05/25 11:19:30;;;;;;;;;;;;;;;;;;;;;
2021/05/25 11:22:16;;;;;;;4.82;1.60;;;15.50;99.90;;;;;;6055928;23;20034;-82
2021/05/25 11:24:58;;;;;;;4.45;1.55;;;15.70;99.90;;;;;;6043662;23;20054;-82
2021/05/25 11:27:46;;;;;;;3.35;1.08;;;15.80;99.90;;;;;;6089599;23;20022;-83
2021/05/25 11:30:28;;;;;;;6.60;1.42;;;16.10;99.90;;;;;;6045750;23;20022;-83
2021/05/25 11:33:03;;;;;;;6.80;1.73;;;16.50;99.90;;;;;;6064317;23;20078;-82
2021/05/25 11:35:31;;;;;;;;;;;16.90;99.90;;;;;;6089810;23;20022;-81
2021/05/25 11:38:00;;;;;;;6.90;1.42;;;17.50;99.90;;;;;;6092443;23;19955;-81
2021/05/25 11:40:33;;;;;;;2.40;1.20;;;17.60;99.90;;;;;;6079035;23;20101;-82
2021/05/25 11:43:00;;;;;;;12.98;2.33;;;17.20;99.90;;;;;;6092662;23;20032;-81
2021/05/25 11:45:29;;;;;;;7.55;1.40;;;16.70;99.90;;;;;;6087786;23;20026;-82
2021/05/25 11:48:01;;;;;;;7.75;1.67;;;16.30;99.90;;;;;;6074166;23;20048;-82
2021/05/25 11:50:38;;;;;;;5.50;1.30;;;16.20;99.90;;;;;;6061632;23;20018;-82
2021/05/25 11:53:11;;;;;;;6.85;1.25;;;16.20;99.90;;;;;;6073723;23;20085;-82
2021/05/25 11:55:42;;;;;;;2.30;1.27;;;16.10;99.90;;;;;;6091505;23;20105;-82
2021/05/25 11:58:09;;;;;;;2.83;0.82;;;15.90;99.90;;;;;;6086026;23;20026;-82
2021/05/25 12:00:36;;;;;;;7.40;1.20;;;16.30;99.90;;;;;;6092693;23;20097;-82
2021/05/25 12:03:10;;;;;;;2.90;0.90;;;17.00;99.90;;;;;;6092752;23;20026;-82
2021/05/25 12:05:39;;;;;;;3.50;1.08;;;17.50;99.90;;;;;;6089584;23;20022;-82
2021/05/25 12:08:09;;;;;;;3.58;0.90;;;18.00;99.90;;;;;;6077018;23;20092;-82
2021/05/25 12:10:42;;;;;;;4.53;1.60;;;18.90;99.70;;;;;;6079270;23;20037;-82
2021/05/25 12:13:13;;;;;;;2.78;0.82;;;19.60;96.70;;;;;;6077830;23;20045;-82
2021/05/25 12:15:59;;;;;;;3.53;0.80;;;19.90;93.70;;;;;;6088108;23;20518;-82
2021/05/25 12:18:27;;;;;;;4.90;0.80;;;20.20;92.40;;;;;;6117730;23;20026;-81
2021/05/25 12:20:55;;;;;;;2.90;0.70;;;20.90;91.10;;;;;;6081089;23;20030;-82
2021/05/25 12:23:28;;;;;;;5.78;0.90;;;21.80;90.30;;;;;;6078920;23;20097;-82
2021/05/25 12:26:11;;;;;;;2.70;1.17;;;22.60;82.30;;;;;;6096995;23;20086;-82
2021/05/25 12:28:39;;;;;;;4.20;1.27;;;23.10;76.50;;;;;;6095011;23;20022;-82
2021/05/25 12:31:07;;;;;;;4.88;0.70;;;23.40;76.30;;;;;;6096322;23;20529;-82
2021/05/25 12:33:37;;;;;;;3.78;1.13;;;23.80;77.60;;;;;;6085928;23;20090;-83
2021/05/25 12:36:40;;;;;;;5.18;1.05;;;24.30;71.40;;;;;;6081158;23;20462;-82
2021/05/25 12:39:09;;;;;;;5.93;1.20;;;23.90;69.30;;;;;;6090639;23;20006;-82
2021/05/25 12:41:40;;;;;;;5.35;1.45;;;23.40;67.30;;;;;;6093578;23;20442;-81
2021/05/25 12:44:09;;;;;;;3.95;1.10;;;22.90;67.20;;;;;;6092272;23;20446;-81
2021/05/25 12:46:53;;;;;;;4.82;0.85;;;22.30;71.00;;;;;;6094754;23;20443;-81
2021/05/25 12:49:41;;;;;;;3.85;1.30;;;22.20;69.60;;;;;;6093182;23;20085;-82
2021/05/25 12:52:28;;;;;;;4.63;0.73;;;22.90;68.20;;;;;;6090292;23;20580;-81
2021/05/25 12:55:06;;;;;;;3.88;0.95;;;23.70;67.10;;;;;;6091639;23;20018;-82
2021/05/25 12:57:46;;;;;;;2.83;1.08;;;24.00;66.30;;;;;;6120733;23;20018;-83
2021/05/25 13:00:28;;;;;;;3.83;0.95;;;23.40;66.60;;;;;;6094158;23;20048;-81
2021/05/25 13:03:00;;;;;;;8.40;1.38;;;22.70;67.80;;;;;;6093609;23;20494;-81
2021/05/25 13:05:33;;;;;;;4.03;0.88;;;22.20;69.30;;;;;;6094402;23;20026;-81
2021/05/25 13:08:05;;;;;;;4.50;1.00;;;22.50;69.30;;;;;;6095235;23;20093;-81